sensor_id;sensor_type;location;lat;lon;timestamp;pressure;altitude;pressure_sealevel;temperature
69420;BMP280;71621;52.030;113.516;2024-03-23T00:55:30;93668.75;;;-5.76
69420;BMP280;71621;52.030;113.516;2024-03-23T00:58:32;93680.22;;;-5.64
69420;BMP280;71621;52.030;113.516;2024-03-23T01:01:34;93670.53;;;-5.71
69420;BMP280;71621;52.030;113.516;2024-03-23T01:04:36;93674.19;;;-5.59
69420;BMP280;71621;52.030;113.516;2024-03-23T01:07:39;93673.66;;;-5.50
69420;BMP280;71621;52.030;113.516;2024-03-23T01:10:41;93697.78;;;-5.72
69420;BMP280;71621;52.030;113.516;2024-03-23T01:13:43;93693.75;;;-5.66
69420;BMP280;71621;52.030;113.516;2024-03-23T01:16:45;93680.09;;;-5.58
69420;BMP280;71621;52.030;113.516;2024-03-23T01:19:48;93698.81;;;-5.45
69420;BMP280;71621;52.030;113.516;2024-03-23T01:22:50;93679.75;;;-5.24
69420;BMP280;71621;52.030;113.516;2024-03-23T01:25:53;93693.84;;;-5.27
69420;BMP280;71621;52.030;113.516;2024-03-23T01:28:55;93709.25;;;-5.22
69420;BMP280;71621;52.030;113.516;2024-03-23T01:31:57;93709.25;;;-5.29
69420;BMP280;71621;52.030;113.516;2024-03-23T01:34:59;93689.47;;;-5.33
69420;BMP280;71621;52.030;113.516;2024-03-23T01:38:02;93709.78;;;-5.31
69420;BMP280;71621;52.030;113.516;2024-03-23T01:41:04;93705.25;;;-5.46
69420;BMP280;71621;52.030;113.516;2024-03-23T01:44:06;93704.06;;;-5.37
69420;BMP280;71621;52.030;113.516;2024-03-23T01:47:09;93711.19;;;-5.38
69420;BMP280;71621;52.030;113.516;2024-03-23T01:50:11;93721.06;;;-5.36
69420;BMP280;71621;52.030;113.516;2024-03-23T01:53:14;93731.13;;;-5.33
69420;BMP280;71621;52.030;113.516;2024-03-23T01:56:19;93709.97;;;-5.37
69420;BMP280;71621;52.030;113.516;2024-03-23T01:59:21;93710.97;;;-5.32
69420;BMP280;71621;52.030;113.516;2024-03-23T02:02:23;93705.28;;;-5.15
69420;BMP280;71621;52.030;113.516;2024-03-23T02:05:25;93717.78;;;-5.14
69420;BMP280;71621;52.030;113.516;2024-03-23T02:08:29;93703.72;;;-5.03
69420;BMP280;71621;52.030;113.516;2024-03-23T02:11:33;93699.88;;;-5.02
69420;BMP280;71621;52.030;113.516;2024-03-23T02:14:35;93703.38;;;-4.99
69420;BMP280;71621;52.030;113.516;2024-03-23T02:17:37;93704.41;;;-4.87
69420;BMP280;71621;52.030;113.516;2024-03-23T02:20:39;93707.50;;;-4.81
69420;BMP280;71621;52.030;113.516;2024-03-23T02:23:41;93699.53;;;-4.75
69420;BMP280;71621;52.030;113.516;2024-03-23T02:26:43;93696.38;;;-4.66
69420;BMP280;71621;52.030;113.516;2024-03-23T02:29:46;93688.03;;;-4.57
69420;BMP280;71621;52.030;113.516;2024-03-23T02:32:48;93681.91;;;-4.44
69420;BMP280;71621;52.030;113.516;2024-03-23T02:35:50;93693.19;;;-4.49
69420;BMP280;71621;52.030;113.516;2024-03-23T02:38:52;93684.66;;;-4.35
69420;BMP280;71621;52.030;113.516;2024-03-23T02:41:54;93677.09;;;-4.15
69420;BMP280;71621;52.030;113.516;2024-03-23T02:44:57;93664.22;;;-4.13
69420;BMP280;71621;52.030;113.516;2024-03-23T02:48:00;93671.75;;;-4.25
69420;BMP280;71621;52.030;113.516;2024-03-23T02:51:02;93672.28;;;-4.27
69420;BMP280;71621;52.030;113.516;2024-03-23T02:54:04;93667.41;;;-4.30
69420;BMP280;71621;52.030;113.516;2024-03-23T02:57:07;93666.53;;;-4.25
69420;BMP280;71621;52.030;113.516;2024-03-23T03:00:09;93659.38;;;-4.25
69420;BMP280;71621;52.030;113.516;2024-03-23T03:03:12;93651.97;;;-4.03
69420;BMP280;71621;52.030;113.516;2024-03-23T03:06:25;93657.81;;;-3.87
69420;BMP280;71621;52.030;113.516;2024-03-23T03:09:29;93647.63;;;-3.76
69420;BMP280;71621;52.030;113.516;2024-03-23T03:12:31;93644.13;;;-3.71
69420;BMP280;71621;52.030;113.516;2024-03-23T03:15:33;93646.38;;;-3.67
69420;BMP280;71621;52.030;113.516;2024-03-23T03:18:35;93644.78;;;-3.62
69420;BMP280;71621;52.030;113.516;2024-03-23T03:21:38;93630.94;;;-3.55
69420;BMP280;71621;52.030;113.516;2024-03-23T03:24:40;93632.19;;;-3.56
69420;BMP280;71621;52.030;113.516;2024-03-23T03:27:42;93630.72;;;-3.50
69420;BMP280;71621;52.030;113.516;2024-03-23T03:30:45;93624.13;;;-3.51
69420;BMP280;71621;52.030;113.516;2024-03-23T03:33:49;93615.28;;;-3.55
69420;BMP280;71621;52.030;113.516;2024-03-23T03:36:52;93601.41;;;-3.41
69420;BMP280;71621;52.030;113.516;2024-03-23T03:39:54;93605.06;;;-3.19
69420;BMP280;71621;52.030;113.516;2024-03-23T03:42:56;93607.75;;;-3.09
69420;BMP280;71621;52.030;113.516;2024-03-23T03:46:00;93612.44;;;-3.07
69420;BMP280;71621;52.030;113.516;2024-03-23T03:49:02;93621.56;;;-3.16
69420;BMP280;71621;52.030;113.516;2024-03-23T03:52:04;93601.75;;;-3.19
69420;BMP280;71621;52.030;113.516;2024-03-23T03:55:13;93603.81;;;-3.18
69420;BMP280;71621;52.030;113.516;2024-03-23T03:58:17;93600.88;;;-3.04
69420;BMP280;71621;52.030;113.516;2024-03-23T04:01:19;93591.06;;;-2.79
69420;BMP280;71621;52.030;113.516;2024-03-23T04:04:21;93585.00;;;-2.54
69420;BMP280;71621;52.030;113.516;2024-03-23T04:07:24;93571.88;;;-2.37
69420;BMP280;71621;52.030;113.516;2024-03-23T04:10:26;93588.63;;;-2.50
69420;BMP280;71621;52.030;113.516;2024-03-23T04:13:28;93567.53;;;-2.52
69420;BMP280;71621;52.030;113.516;2024-03-23T04:16:34;93558.47;;;-2.41
69420;BMP280;71621;52.030;113.516;2024-03-23T04:19:36;93571.75;;;-2.39
69420;BMP280;71621;52.030;113.516;2024-03-23T04:22:39;93571.53;;;-2.24
69420;BMP280;71621;52.030;113.516;2024-03-23T04:25:41;93562.19;;;-2.17
69420;BMP280;71621;52.030;113.516;2024-03-23T04:28:43;93575.94;;;-2.26
69420;BMP280;71621;52.030;113.516;2024-03-23T04:31:45;93561.31;;;-2.30
69420;BMP280;71621;52.030;113.516;2024-03-23T04:34:48;93543.69;;;-2.29
69420;BMP280;71621;52.030;113.516;2024-03-23T04:37:51;93558.94;;;-2.08
69420;BMP280;71621;52.030;113.516;2024-03-23T04:40:58;93555.88;;;-2.05
69420;BMP280;71621;52.030;113.516;2024-03-23T04:44:00;93547.75;;;-1.99
69420;BMP280;71621;52.030;113.516;2024-03-23T04:47:03;93545.44;;;-1.95
69420;BMP280;71621;52.030;113.516;2024-03-23T04:50:08;93547.81;;;-1.80
69420;BMP280;71621;52.030;113.516;2024-03-23T04:53:12;93531.19;;;-1.65
69420;BMP280;71621;52.030;113.516;2024-03-23T04:56:15;93535.31;;;-1.52
69420;BMP280;71621;52.030;113.516;2024-03-23T04:59:18;93531.88;;;-1.35
69420;BMP280;71621;52.030;113.516;2024-03-23T05:02:20;93535.19;;;-1.16
69420;BMP280;71621;52.030;113.516;2024-03-23T05:05:23;93520.00;;;-1.17
69420;BMP280;71621;52.030;113.516;2024-03-23T05:08:25;93518.75;;;-1.06
69420;BMP280;71621;52.030;113.516;2024-03-23T05:11:27;93493.63;;;-1.00
69420;BMP280;71621;52.030;113.516;2024-03-23T05:14:30;93520.69;;;-0.97
69420;BMP280;71621;52.030;113.516;2024-03-23T05:17:33;93531.59;;;-0.91
69420;BMP280;71621;52.030;113.516;2024-03-23T05:20:35;93514.50;;;-1.11
69420;BMP280;71621;52.030;113.516;2024-03-23T05:23:37;93500.25;;;-0.99
69420;BMP280;71621;52.030;113.516;2024-03-23T05:26:39;93510.72;;;-0.89
69420;BMP280;71621;52.030;113.516;2024-03-23T05:29:42;93497.97;;;-0.73
69420;BMP280;71621;52.030;113.516;2024-03-23T05:32:43;93497.97;;;-0.73
69420;BMP280;71621;52.030;113.516;2024-03-23T05:35:55;93498.25;;;-0.69
69420;BMP280;71621;52.030;113.516;2024-03-23T05:38:57;93517.16;;;-0.71
69420;BMP280;71621;52.030;113.516;2024-03-23T05:41:59;93495.59;;;-0.60
69420;BMP280;71621;52.030;113.516;2024-03-23T05:45:02;93509.88;;;-0.41
69420;BMP280;71621;52.030;113.516;2024-03-23T05:48:07;93504.31;;;-0.36
69420;BMP280;71621;52.030;113.516;2024-03-23T05:51:09;93494.09;;;-0.32
69420;BMP280;71621;52.030;113.516;2024-03-23T05:54:12;93523.00;;;-0.41
69420;BMP280;71621;52.030;113.516;2024-03-23T05:57:14;93511.75;;;-0.63
69420;BMP280;71621;52.030;113.516;2024-03-23T06:00:17;93515.25;;;-0.70
69420;BMP280;71621;52.030;113.516;2024-03-23T06:03:19;93505.94;;;-0.52
69420;BMP280;71621;52.030;113.516;2024-03-23T06:06:22;93511.69;;;-0.13
69420;BMP280;71621;52.030;113.516;2024-03-23T06:09:25;93514.84;;;0.17
69420;BMP280;71621;52.030;113.516;2024-03-23T06:12:28;93502.97;;;0.16
69420;BMP280;71621;52.030;113.516;2024-03-23T06:15:30;93541.53;;;0.23
69420;BMP280;71621;52.030;113.516;2024-03-23T06:18:33;93500.66;;;0.32
69420;BMP280;71621;52.030;113.516;2024-03-23T06:21:35;93524.84;;;0.30
69420;BMP280;71621;52.030;113.516;2024-03-23T06:24:37;93502.19;;;0.46
69420;BMP280;71621;52.030;113.516;2024-03-23T06:27:40;93536.31;;;0.35
69420;BMP280;71621;52.030;113.516;2024-03-23T06:30:42;93520.97;;;0.10
69420;BMP280;71621;52.030;113.516;2024-03-23T06:33:44;93510.84;;;0.16
69420;BMP280;71621;52.030;113.516;2024-03-23T06:36:47;93510.16;;;-0.06
69420;BMP280;71621;52.030;113.516;2024-03-23T06:39:49;93507.00;;;-0.14
69420;BMP280;71621;52.030;113.516;2024-03-23T06:42:51;93511.09;;;-0.02
69420;BMP280;71621;52.030;113.516;2024-03-23T06:45:53;93508.53;;;0.10
69420;BMP280;71621;52.030;113.516;2024-03-23T06:48:56;93518.41;;;0.43
69420;BMP280;71621;52.030;113.516;2024-03-23T06:51:58;93510.75;;;0.80
69420;BMP280;71621;52.030;113.516;2024-03-23T06:55:00;93506.00;;;0.88
69420;BMP280;71621;52.030;113.516;2024-03-23T06:58:02;93513.41;;;0.80
69420;BMP280;71621;52.030;113.516;2024-03-23T07:01:05;93511.94;;;0.55
69420;BMP280;71621;52.030;113.516;2024-03-23T07:04:08;93517.28;;;0.46
69420;BMP280;71621;52.030;113.516;2024-03-23T07:07:11;93516.97;;;0.30
69420;BMP280;71621;52.030;113.516;2024-03-23T07:10:13;93507.53;;;0.15
69420;BMP280;71621;52.030;113.516;2024-03-23T07:13:15;93533.88;;;0.06
69420;BMP280;71621;52.030;113.516;2024-03-23T07:16:18;93524.72;;;0.07
69420;BMP280;71621;52.030;113.516;2024-03-23T07:19:21;93507.31;;;0.11
69420;BMP280;71621;52.030;113.516;2024-03-23T07:22:23;93512.22;;;0.17
69420;BMP280;71621;52.030;113.516;2024-03-23T07:25:26;93511.50;;;0.38
69420;BMP280;71621;52.030;113.516;2024-03-23T07:28:29;93531.66;;;0.45
69420;BMP280;71621;52.030;113.516;2024-03-23T07:31:34;93522.91;;;0.31
69420;BMP280;71621;52.030;113.516;2024-03-23T07:34:36;93512.19;;;0.38
69420;BMP280;71621;52.030;113.516;2024-03-23T07:37:38;93493.56;;;0.34
69420;BMP280;71621;52.030;113.516;2024-03-23T07:40:40;93512.28;;;0.28
69420;BMP280;71621;52.030;113.516;2024-03-23T07:43:43;93505.03;;;0.17
69420;BMP280;71621;52.030;113.516;2024-03-23T07:46:45;93511.22;;;0.01
69420;BMP280;71621;52.030;113.516;2024-03-23T07:49:48;93510.75;;;-0.17
69420;BMP280;71621;52.030;113.516;2024-03-23T07:52:50;93503.94;;;-0.11
69420;BMP280;71621;52.030;113.516;2024-03-23T07:55:54;93507.31;;;0.11
69420;BMP280;71621;52.030;113.516;2024-03-23T07:58:57;93501.16;;;0.18
69420;BMP280;71621;52.030;113.516;2024-03-23T08:02:00;93496.59;;;0.19
69420;BMP280;71621;52.030;113.516;2024-03-23T08:05:02;93514.69;;;0.24
69420;BMP280;71621;52.030;113.516;2024-03-23T08:08:04;93514.88;;;0.50
69420;BMP280;71621;52.030;113.516;2024-03-23T08:11:07;93508.63;;;0.55
69420;BMP280;71621;52.030;113.516;2024-03-23T08:14:09;93509.56;;;0.38
69420;BMP280;71621;52.030;113.516;2024-03-23T08:17:11;93504.97;;;0.27
69420;BMP280;71621;52.030;113.516;2024-03-23T08:20:14;93495.50;;;0.34
69420;BMP280;71621;52.030;113.516;2024-03-23T08:23:16;93503.38;;;0.55
69420;BMP280;71621;52.030;113.516;2024-03-23T08:26:18;93486.22;;;0.54
69420;BMP280;71621;52.030;113.516;2024-03-23T08:29:20;93489.97;;;0.51
69420;BMP280;71621;52.030;113.516;2024-03-23T08:32:22;93486.69;;;0.62
69420;BMP280;71621;52.030;113.516;2024-03-23T08:35:24;93473.94;;;0.80
69420;BMP280;71621;52.030;113.516;2024-03-23T08:38:28;93481.16;;;0.79
69420;BMP280;71621;52.030;113.516;2024-03-23T08:41:30;93483.06;;;0.67
69420;BMP280;71621;52.030;113.516;2024-03-23T08:44:32;93471.63;;;0.63
69420;BMP280;71621;52.030;113.516;2024-03-23T08:47:34;93485.38;;;0.51
69420;BMP280;71621;52.030;113.516;2024-03-23T08:50:38;93482.72;;;0.40
69420;BMP280;71621;52.030;113.516;2024-03-23T08:53:40;93473.03;;;0.42
69420;BMP280;71621;52.030;113.516;2024-03-23T08:56:42;93486.88;;;0.43
69420;BMP280;71621;52.030;113.516;2024-03-23T08:59:45;93486.88;;;0.43
69420;BMP280;71621;52.030;113.516;2024-03-23T09:02:48;93500.06;;;0.54
69420;BMP280;71621;52.030;113.516;2024-03-23T09:05:51;93489.66;;;0.56
69420;BMP280;71621;52.030;113.516;2024-03-23T09:08:53;93491.03;;;0.57
69420;BMP280;71621;52.030;113.516;2024-03-23T09:11:55;93492.97;;;0.57
69420;BMP280;71621;52.030;113.516;2024-03-23T09:14:58;93480.50;;;0.57
69420;BMP280;71621;52.030;113.516;2024-03-23T09:18:00;93500.47;;;0.51
69420;BMP280;71621;52.030;113.516;2024-03-23T09:21:10;93502.50;;;0.41
69420;BMP280;71621;52.030;113.516;2024-03-23T09:24:12;93495.84;;;0.40
69420;BMP280;71621;52.030;113.516;2024-03-23T09:27:15;93508.56;;;0.43
69420;BMP280;71621;52.030;113.516;2024-03-23T09:30:17;93488.41;;;0.36
69420;BMP280;71621;52.030;113.516;2024-03-23T09:33:19;93506.78;;;0.03
69420;BMP280;71621;52.030;113.516;2024-03-23T09:36:21;93490.50;;;-0.05
69420;BMP280;71621;52.030;113.516;2024-03-23T09:39:23;93495.94;;;-0.13
69420;BMP280;71621;52.030;113.516;2024-03-23T09:42:27;93498.00;;;-0.11
69420;BMP280;71621;52.030;113.516;2024-03-23T09:45:29;93514.72;;;-0.07
69420;BMP280;71621;52.030;113.516;2024-03-23T09:48:32;93497.03;;;-0.06
69420;BMP280;71621;52.030;113.516;2024-03-23T09:51:38;93493.72;;;-0.07
69420;BMP280;71621;52.030;113.516;2024-03-23T09:54:40;93499.66;;;-0.06
69420;BMP280;71621;52.030;113.516;2024-03-23T09:57:42;93496.06;;;-0.11
69420;BMP280;71621;52.030;113.516;2024-03-23T10:00:45;93496.91;;;-0.08
69420;BMP280;71621;52.030;113.516;2024-03-23T10:03:49;93486.75;;;-0.02
69420;BMP280;71621;52.030;113.516;2024-03-23T10:06:51;93495.47;;;0.01
69420;BMP280;71621;52.030;113.516;2024-03-23T10:09:53;93494.91;;;0.02
69420;BMP280;71621;52.030;113.516;2024-03-23T10:12:55;93499.09;;;-0.05
69420;BMP280;71621;52.030;113.516;2024-03-23T10:15:59;93490.75;;;-0.01
69420;BMP280;71621;52.030;113.516;2024-03-23T10:19:01;93493.66;;;0.03
69420;BMP280;71621;52.030;113.516;2024-03-23T10:22:04;93493.66;;;0.03
69420;BMP280;71621;52.030;113.516;2024-03-23T10:25:10;93501.09;;;0.07
69420;BMP280;71621;52.030;113.516;2024-03-23T10:28:14;93485.09;;;0.03
69420;BMP280;71621;52.030;113.516;2024-03-23T10:31:16;93505.97;;;0.01
69420;BMP280;71621;52.030;113.516;2024-03-23T10:34:25;93497.94;;;-0.02
69420;BMP280;71621;52.030;113.516;2024-03-23T10:37:28;93498.97;;;-0.07
69420;BMP280;71621;52.030;113.516;2024-03-23T10:40:30;93503.25;;;-0.11
69420;BMP280;71621;52.030;113.516;2024-03-23T10:43:33;93501.19;;;-0.13
69420;BMP280;71621;52.030;113.516;2024-03-23T10:46:35;93507.13;;;-0.12
69420;BMP280;71621;52.030;113.516;2024-03-23T10:49:39;93508.81;;;-0.17
69420;BMP280;71621;52.030;113.516;2024-03-23T10:52:46;93505.50;;;-0.17
69420;BMP280;71621;52.030;113.516;2024-03-23T10:55:52;93503.44;;;-0.19
69420;BMP280;71621;52.030;113.516;2024-03-23T10:58:55;93506.88;;;-0.16
69420;BMP280;71621;52.030;113.516;2024-03-23T11:01:59;93507.47;;;-0.18
69420;BMP280;71621;52.030;113.516;2024-03-23T11:05:02;93510.50;;;-0.21
69420;BMP280;71621;52.030;113.516;2024-03-23T11:08:34;93514.09;;;-0.17
69420;BMP280;71621;52.030;113.516;2024-03-23T11:11:38;93514.38;;;-0.22
69420;BMP280;71621;52.030;113.516;2024-03-23T11:14:40;93521.44;;;-0.25
69420;BMP280;71621;52.030;113.516;2024-03-23T11:18:02;93518.38;;;-0.21
69420;BMP280;71621;52.030;113.516;2024-03-23T11:21:10;93522.25;;;-0.22
69420;BMP280;71621;52.030;113.516;2024-03-23T11:24:15;93526.81;;;-0.23
69420;BMP280;71621;52.030;113.516;2024-03-23T11:27:18;93527.91;;;-0.16
69420;BMP280;71621;52.030;113.516;2024-03-23T11:30:29;93532.59;;;-0.15
69420;BMP280;71621;52.030;113.516;2024-03-23T11:33:31;93534.28;;;-0.19
69420;BMP280;71621;52.030;113.516;2024-03-23T11:36:34;93539.78;;;-0.15
69420;BMP280;71621;52.030;113.516;2024-03-23T11:39:36;93544.88;;;-0.08
69420;BMP280;71621;52.030;113.516;2024-03-23T11:42:38;93548.75;;;-0.09
69420;BMP280;71621;52.030;113.516;2024-03-23T11:45:45;93546.41;;;-0.14
69420;BMP280;71621;52.030;113.516;2024-03-23T11:48:50;93551.66;;;-0.14
69420;BMP280;71621;52.030;113.516;2024-03-23T11:51:56;93554.28;;;-0.14
69420;BMP280;71621;52.030;113.516;2024-03-23T11:55:05;93554.13;;;-0.07
69420;BMP280;71621;52.030;113.516;2024-03-23T11:58:11;93551.06;;;-0.03
69420;BMP280;71621;52.030;113.516;2024-03-23T12:01:13;93554.56;;;-0.10
69420;BMP280;71621;52.030;113.516;2024-03-23T12:04:25;93557.72;;;-0.12
69420;BMP280;71621;52.030;113.516;2024-03-23T12:07:28;93561.78;;;-0.20
69420;BMP280;71621;52.030;113.516;2024-03-23T12:10:30;93558.63;;;-0.28
69420;BMP280;71621;52.030;113.516;2024-03-23T12:13:33;93568.84;;;-0.33
69420;BMP280;71621;52.030;113.516;2024-03-23T12:16:35;93560.84;;;-0.35
69420;BMP280;71621;52.030;113.516;2024-03-23T12:19:38;93572.72;;;-0.34
69420;BMP280;71621;52.030;113.516;2024-03-23T12:22:41;93575.34;;;-0.34
69420;BMP280;71621;52.030;113.516;2024-03-23T12:25:43;93576.03;;;-0.33
69420;BMP280;71621;52.030;113.516;2024-03-23T12:28:45;93580.75;;;-0.32
69420;BMP280;71621;52.030;113.516;2024-03-23T12:31:47;93576.03;;;-0.33
69420;BMP280;71621;52.030;113.516;2024-03-23T12:34:50;93585.59;;;-0.38
69420;BMP280;71621;52.030;113.516;2024-03-23T12:37:51;93589.75;;;-0.44
69420;BMP280;71621;52.030;113.516;2024-03-23T12:40:54;93593.34;;;-0.49
69420;BMP280;71621;52.030;113.516;2024-03-23T12:43:56;93591.56;;;-0.47
69420;BMP280;71621;52.030;113.516;2024-03-23T12:46:59;93584.09;;;-0.50
69420;BMP280;71621;52.030;113.516;2024-03-23T12:50:01;93585.34;;;-0.51
69420;BMP280;71621;52.030;113.516;2024-03-23T12:53:03;93586.75;;;-0.60
69420;BMP280;71621;52.030;113.516;2024-03-23T12:56:05;93591.34;;;-0.70
69420;BMP280;71621;52.030;113.516;2024-03-23T12:59:09;93589.53;;;-0.77
69420;BMP280;71621;52.030;113.516;2024-03-23T13:02:11;93588.31;;;-0.86
69420;BMP280;71621;52.030;113.516;2024-03-23T13:05:14;93589.28;;;-0.91
69420;BMP280;71621;52.030;113.516;2024-03-23T13:08:16;93596.47;;;-0.92
69420;BMP280;71621;52.030;113.516;2024-03-23T13:11:19;93600.47;;;-0.91
69420;BMP280;71621;52.030;113.516;2024-03-23T13:14:21;93596.88;;;-0.95
69420;BMP280;71621;52.030;113.516;2024-03-23T13:17:23;93606.53;;;-0.98
69420;BMP280;71621;52.030;113.516;2024-03-23T13:20:26;93595.50;;;-1.06
69420;BMP280;71621;52.030;113.516;2024-03-23T13:23:28;93601.84;;;-1.09
69420;BMP280;71621;52.030;113.516;2024-03-23T13:26:30;93607.78;;;-1.08
69420;BMP280;71621;52.030;113.516;2024-03-23T13:29:34;93606.13;;;-1.13
69420;BMP280;71621;52.030;113.516;2024-03-23T13:32:37;93625.19;;;-1.23
69420;BMP280;71621;52.030;113.516;2024-03-23T13:35:39;93633.72;;;-1.32
69420;BMP280;71621;52.030;113.516;2024-03-23T13:38:42;93636.72;;;-1.45
69420;BMP280;71621;52.030;113.516;2024-03-23T13:41:44;93642.06;;;-1.53
69420;BMP280;71621;52.030;113.516;2024-03-23T13:44:47;93643.31;;;-1.54
69420;BMP280;71621;52.030;113.516;2024-03-23T13:47:50;93653.22;;;-1.62
69420;BMP280;71621;52.030;113.516;2024-03-23T13:51:03;93667.81;;;-1.68
69420;BMP280;71621;52.030;113.516;2024-03-23T13:54:06;93657.59;;;-1.74
69420;BMP280;71621;52.030;113.516;2024-03-23T13:57:08;93664.59;;;-1.86
69420;BMP280;71621;52.030;113.516;2024-03-23T14:00:13;93667.28;;;-1.94
69420;BMP280;71621;52.030;113.516;2024-03-23T14:03:15;93669.03;;;-2.06
69420;BMP280;71621;52.030;113.516;2024-03-23T14:06:18;93666.50;;;-2.14
69420;BMP280;71621;52.030;113.516;2024-03-23T14:09:20;93668.84;;;-2.18
69420;BMP280;71621;52.030;113.516;2024-03-23T14:12:25;93679.53;;;-2.23
69420;BMP280;71621;52.030;113.516;2024-03-23T14:15:27;93681.88;;;-2.27
69420;BMP280;71621;52.030;113.516;2024-03-23T14:18:30;93672.84;;;-2.34
69420;BMP280;71621;52.030;113.516;2024-03-23T14:21:32;93685.88;;;-2.44
69420;BMP280;71621;52.030;113.516;2024-03-23T14:24:36;93672.97;;;-2.59
69420;BMP280;71621;52.030;113.516;2024-03-23T14:27:38;93676.50;;;-2.64
69420;BMP280;71621;52.030;113.516;2024-03-23T14:30:41;93669.56;;;-2.69
69420;BMP280;71621;52.030;113.516;2024-03-23T14:33:44;93678.66;;;-2.70
69420;BMP280;71621;52.030;113.516;2024-03-23T14:36:49;93687.56;;;-2.73
69420;BMP280;71621;52.030;113.516;2024-03-23T14:39:52;93687.88;;;-2.69
69420;BMP280;71621;52.030;113.516;2024-03-23T14:42:54;93688.69;;;-2.59
69420;BMP280;71621;52.030;113.516;2024-03-23T14:49:14;93694.88;;;-2.54
69420;BMP280;71621;52.030;113.516;2024-03-23T14:52:19;93692.66;;;-2.58
69420;BMP280;71621;52.030;113.516;2024-03-23T14:55:22;93686.88;;;-2.74
69420;BMP280;71621;52.030;113.516;2024-03-23T14:58:25;93692.19;;;-2.81
69420;BMP280;71621;52.030;113.516;2024-03-23T15:01:27;93695.03;;;-2.87
69420;BMP280;71621;52.030;113.516;2024-03-23T15:04:29;93699.47;;;-2.97
69420;BMP280;71621;52.030;113.516;2024-03-23T15:07:31;93695.94;;;-3.09
69420;BMP280;71621;52.030;113.516;2024-03-23T15:10:34;93691.59;;;-3.15
69420;BMP280;71621;52.030;113.516;2024-03-23T15:13:37;93696.72;;;-3.24
69420;BMP280;71621;52.030;113.516;2024-03-23T15:16:39;93706.22;;;-3.36
69420;BMP280;71621;52.030;113.516;2024-03-23T15:19:43;93701.06;;;-3.44
69420;BMP280;71621;52.030;113.516;2024-03-23T15:22:46;93708.59;;;-3.48
69420;BMP280;71621;52.030;113.516;2024-03-23T15:26:14;93710.16;;;-3.53
69420;BMP280;71621;52.030;113.516;2024-03-23T15:29:17;93721.16;;;-3.54
69420;BMP280;71621;52.030;113.516;2024-03-23T15:32:20;93728.34;;;-3.62
69420;BMP280;71621;52.030;113.516;2024-03-23T15:35:22;93725.25;;;-3.69
69420;BMP280;71621;52.030;113.516;2024-03-23T15:38:25;93730.84;;;-3.72
69420;BMP280;71621;52.030;113.516;2024-03-23T15:41:27;93732.59;;;-3.75
69420;BMP280;71621;52.030;113.516;2024-03-23T15:44:29;93736.25;;;-3.78
69420;BMP280;71621;52.030;113.516;2024-03-23T15:47:32;93732.28;;;-3.86
69420;BMP280;71621;52.030;113.516;2024-03-23T15:50:34;93740.34;;;-3.92
69420;BMP280;71621;52.030;113.516;2024-03-23T15:53:37;93734.78;;;-3.96
69420;BMP280;71621;52.030;113.516;2024-03-23T15:56:39;93733.03;;;-4.01
69420;BMP280;71621;52.030;113.516;2024-03-23T15:59:42;93738.63;;;-4.05
69420;BMP280;71621;52.030;113.516;2024-03-23T16:02:44;93736.06;;;-4.12
69420;BMP280;71621;52.030;113.516;2024-03-23T16:05:54;93733.66;;;-4.26
69420;BMP280;71621;52.030;113.516;2024-03-23T16:08:57;93742.72;;;-4.27
69420;BMP280;71621;52.030;113.516;2024-03-23T16:11:59;93748.63;;;-4.26
69420;BMP280;71621;52.030;113.516;2024-03-23T16:15:01;93752.81;;;-4.31
69420;BMP280;71621;52.030;113.516;2024-03-23T16:18:04;93758.56;;;-4.32
69420;BMP280;71621;52.030;113.516;2024-03-23T16:21:07;93747.41;;;-4.33
69420;BMP280;71621;52.030;113.516;2024-03-23T16:24:09;93757.16;;;-4.33
69420;BMP280;71621;52.030;113.516;2024-03-23T16:27:12;93759.94;;;-4.39
69420;BMP280;71621;52.030;113.516;2024-03-23T16:30:15;93751.25;;;-4.41
69420;BMP280;71621;52.030;113.516;2024-03-23T16:33:17;93751.94;;;-4.41
69420;BMP280;71621;52.030;113.516;2024-03-23T16:36:19;93748.84;;;-4.47
69420;BMP280;71621;52.030;113.516;2024-03-23T16:39:21;93746.78;;;-4.56
69420;BMP280;71621;52.030;113.516;2024-03-23T16:42:26;93739.97;;;-4.59
69420;BMP280;71621;52.030;113.516;2024-03-23T16:45:28;93745.56;;;-4.63
69420;BMP280;71621;52.030;113.516;2024-03-23T16:48:31;93754.06;;;-4.70
69420;BMP280;71621;52.030;113.516;2024-03-23T16:51:33;93759.66;;;-4.73
69420;BMP280;71621;52.030;113.516;2024-03-23T16:54:35;93757.38;;;-4.77
69420;BMP280;71621;52.030;113.516;2024-03-23T16:57:38;93758.25;;;-4.82
69420;BMP280;71621;52.030;113.516;2024-03-23T17:00:40;93752.00;;;-5.02
69420;BMP280;71621;52.030;113.516;2024-03-23T17:03:42;93753.56;;;-5.14
69420;BMP280;71621;52.030;113.516;2024-03-23T17:06:44;93746.94;;;-5.23
69420;BMP280;71621;52.030;113.516;2024-03-23T17:09:47;93746.63;;;-5.27
69420;BMP280;71621;52.030;113.516;2024-03-23T17:12:49;93752.00;;;-5.25
69420;BMP280;71621;52.030;113.516;2024-03-23T17:15:52;93748.69;;;-5.18
69420;BMP280;71621;52.030;113.516;2024-03-23T17:18:54;93747.66;;;-5.22
69420;BMP280;71621;52.030;113.516;2024-03-23T17:21:57;93749.91;;;-5.26
69420;BMP280;71621;52.030;113.516;2024-03-23T17:24:59;93744.16;;;-5.33
69420;BMP280;71621;52.030;113.516;2024-03-23T17:28:01;93743.66;;;-5.39
69420;BMP280;71621;52.030;113.516;2024-03-23T17:31:04;93752.31;;;-5.44
69420;BMP280;71621;52.030;113.516;2024-03-23T17:34:06;93743.59;;;-5.46
69420;BMP280;71621;52.030;113.516;2024-03-23T17:37:08;93730.25;;;-5.50
69420;BMP280;71621;52.030;113.516;2024-03-23T17:40:10;93727.66;;;-5.50
69420;BMP280;71621;52.030;113.516;2024-03-23T17:43:13;93736.69;;;-5.51
69420;BMP280;71621;52.030;113.516;2024-03-23T17:46:15;93735.44;;;-5.58
69420;BMP280;71621;52.030;113.516;2024-03-23T17:49:17;93733.66;;;-5.63
69420;BMP280;71621;52.030;113.516;2024-03-23T17:52:20;93741.13;;;-5.67
69420;BMP280;71621;52.030;113.516;2024-03-23T17:55:23;93736.47;;;-5.69
69420;BMP280;71621;52.030;113.516;2024-03-23T17:58:25;93746.53;;;-5.73
69420;BMP280;71621;52.030;113.516;2024-03-23T18:01:27;93749.44;;;-5.76
69420;BMP280;71621;52.030;113.516;2024-03-23T18:04:29;93758.13;;;-5.74